createdAt,value
2023-04-25T00:05:13.222Z,36.83
2023-04-25T00:10:35.110Z,37.21
2023-04-25T00:15:57.698Z,36.89
2023-04-25T00:21:21.159Z,37.12
2023-04-25T00:26:42.984Z,36.99
2023-04-25T00:32:05.031Z,36.74
2023-04-25T00:37:27.071Z,36.49
2023-04-25T00:42:49.265Z,36.83
2023-04-25T00:48:11.347Z,36.66
2023-04-25T00:53:33.827Z,36.84
2023-04-25T00:58:57.954Z,36.52
2023-04-25T01:04:20.112Z,36.22
2023-04-25T01:09:42.357Z,36.20
2023-04-25T01:15:04.717Z,36.33
2023-04-25T01:20:28.154Z,36.61
2023-04-25T01:25:50.737Z,36.41
2023-04-25T01:31:13.334Z,36.24
2023-04-25T01:36:36.278Z,36.17
2023-04-25T01:41:58.427Z,36.53
2023-04-25T01:47:20.274Z,36.44
2023-04-25T01:52:42.200Z,36.50
2023-04-25T01:58:05.044Z,36.51
2023-04-25T02:03:27.179Z,36.42
2023-04-25T02:08:49.270Z,36.07
2023-04-25T02:14:11.011Z,36.03
2023-04-25T02:19:32.945Z,36.19
2023-04-25T02:24:55.262Z,36.02
2023-04-25T02:30:17.198Z,36.20
2023-04-25T02:35:39.089Z,36.33
2023-04-25T02:41:01.188Z,36.11
2023-04-25T02:46:32.071Z,36.06
2023-04-25T02:52:01.024Z,36.44
2023-04-25T02:57:22.820Z,36.29
2023-04-25T03:02:44.739Z,36.10
2023-04-25T03:08:06.566Z,36.15
2023-04-25T03:13:28.704Z,36.01
2023-04-25T03:18:51.658Z,35.96
2023-04-25T03:24:13.840Z,35.70
2023-04-25T03:29:35.624Z,36.05
2023-04-25T03:34:57.449Z,36.01
2023-04-25T03:40:19.209Z,36.11
2023-04-25T03:45:41.172Z,35.99
2023-04-25T03:51:02.940Z,35.84
2023-04-25T03:56:25.175Z,35.75
2023-04-25T04:01:46.994Z,35.96
2023-04-25T04:07:08.865Z,35.50
2023-04-25T04:12:30.763Z,35.79
2023-04-25T04:17:52.609Z,35.92
2023-04-25T04:23:14.720Z,35.90
2023-04-25T04:28:36.946Z,35.71
2023-04-25T04:33:58.901Z,35.91
2023-04-25T04:39:21.680Z,35.62
2023-04-25T04:44:45.817Z,35.54
2023-04-25T04:50:10.532Z,35.75
2023-04-25T04:55:32.431Z,35.86
2023-04-25T05:00:54.235Z,35.64
2023-04-25T05:06:16.264Z,35.62
2023-04-25T05:11:38.056Z,35.32
2023-04-25T05:16:59.893Z,34.88
2023-04-25T05:22:22.009Z,34.34
2023-04-25T05:27:43.993Z,34.30
2023-04-25T05:33:05.790Z,34.29
2023-04-25T05:38:27.563Z,34.20
2023-04-25T05:43:51.131Z,34.09
2023-04-25T05:49:13.238Z,34.16
2023-04-25T05:54:35.151Z,34.07
2023-04-25T05:59:56.980Z,34.31
2023-04-25T06:05:19.022Z,34.24
2023-04-25T06:10:41.240Z,34.46
2023-04-25T06:21:24.893Z,34.60
2023-04-25T06:26:46.626Z,34.67
2023-04-25T06:32:08.467Z,34.68
2023-04-25T06:37:30.301Z,34.87
2023-04-25T06:42:52.082Z,34.51
2023-04-25T06:48:13.852Z,34.82
2023-04-25T06:53:35.672Z,34.27
2023-04-25T06:58:57.555Z,34.47
2023-04-25T07:04:19.617Z,34.20
2023-04-25T07:09:41.594Z,33.78
2023-04-25T07:15:07.205Z,33.59
2023-04-25T07:20:29.052Z,33.42
2023-04-25T07:25:50.822Z,33.42
2023-04-25T07:31:12.677Z,33.23
2023-04-25T07:36:34.526Z,32.88
2023-04-25T07:41:56.339Z,32.75
2023-04-25T07:47:20.317Z,32.72
2023-04-25T07:52:42.289Z,32.54
2023-04-25T07:58:04.070Z,32.32
2023-04-25T08:03:26.060Z,31.66
2023-04-25T08:08:48.231Z,31.58
2023-04-25T08:14:10.275Z,32.04
2023-04-25T08:19:32.120Z,31.63
2023-04-25T08:24:53.932Z,31.66
2023-04-25T08:30:16.021Z,31.37
2023-04-25T08:35:37.982Z,31.03
2023-04-25T08:41:01.135Z,31.23
2023-04-25T08:46:24.367Z,31.41
2023-04-25T08:51:52.442Z,31.79
2023-04-25T08:57:16.664Z,31.77
2023-04-25T09:02:38.885Z,31.77
2023-04-25T09:08:02.119Z,32.04
2023-04-25T09:13:29.254Z,31.80
2023-04-25T09:18:51.443Z,31.62
2023-04-25T09:24:13.764Z,31.94
2023-04-25T09:29:37.553Z,32.08
2023-04-25T09:34:59.553Z,31.66
2023-04-25T09:40:21.530Z,31.55
2023-04-25T09:45:48.490Z,31.19
2023-04-25T09:51:17.852Z,30.91
2023-04-25T09:56:40.265Z,31.36
2023-04-25T10:02:03.030Z,31.01
2023-04-25T10:07:27.931Z,30.78
2023-04-25T10:12:50.205Z,30.92
2023-04-25T10:18:12.363Z,30.82
2023-04-25T10:23:38.197Z,30.66
2023-04-25T10:29:04.978Z,30.64
2023-04-25T10:34:42.821Z,30.03
2023-04-25T10:40:13.999Z,30.49
2023-04-25T10:45:52.822Z,30.17
2023-04-25T10:51:47.310Z,30.44
2023-04-25T10:57:29.030Z,30.44
2023-04-25T11:02:59.388Z,30.93
2023-04-25T11:08:38.415Z,30.94
2023-04-25T11:14:00.207Z,30.91
2023-04-25T11:19:22.151Z,30.89
2023-04-25T11:24:44.441Z,30.57
2023-04-25T11:30:14.629Z,30.69
2023-04-25T11:35:36.788Z,30.35
2023-04-25T11:40:58.739Z,30.30
2023-04-25T11:46:21.522Z,30.35
2023-04-25T11:51:45.081Z,30.56
2023-04-25T11:57:07.052Z,30.07
2023-04-25T12:02:29.340Z,30.11
2023-04-25T12:07:51.632Z,30.40
2023-04-25T12:13:21.620Z,29.78
2023-04-25T12:18:43.412Z,30.27
2023-04-25T12:24:20.718Z,30.28
2023-04-25T12:29:52.568Z,30.16
2023-04-25T12:35:14.372Z,29.87
2023-04-25T12:40:36.485Z,29.68
2023-04-25T12:45:58.529Z,29.39
2023-04-25T12:51:20.298Z,29.34
2023-04-25T12:56:43.041Z,29.46
2023-04-25T13:02:04.909Z,29.27
2023-04-25T13:07:26.803Z,29.39
2023-04-25T13:12:48.586Z,29.40
2023-04-25T13:18:10.488Z,29.14
2023-04-25T13:23:32.341Z,29.25
2023-04-25T13:28:54.247Z,28.79
2023-04-25T13:34:16.115Z,29.06
2023-04-25T13:39:38.018Z,28.43
2023-04-25T13:44:59.807Z,28.18
2023-04-25T13:50:22.249Z,28.13
2023-04-25T13:55:44.069Z,28.32
2023-04-25T14:01:06.110Z,28.44
2023-04-25T14:06:28.658Z,27.87
2023-04-25T14:11:50.945Z,28.38
2023-04-25T14:17:12.906Z,28.45
2023-04-25T14:22:35.121Z,28.20
2023-04-25T14:27:57.066Z,28.00
2023-04-25T14:33:18.849Z,27.84
2023-04-25T14:38:40.893Z,27.99
2023-04-25T14:44:02.782Z,28.10
2023-04-25T14:49:24.580Z,27.82
2023-04-25T14:54:46.553Z,28.05
2023-04-25T15:00:10.723Z,28.17
2023-04-25T15:05:32.584Z,28.43
2023-04-25T15:10:54.576Z,28.91
2023-04-25T15:16:16.543Z,29.21
2023-04-25T15:21:38.477Z,29.30
2023-04-25T15:27:00.735Z,29.35
2023-04-25T15:32:23.910Z,28.87
2023-04-25T15:37:46.491Z,28.89
2023-04-25T15:43:11.283Z,28.70
2023-04-25T15:48:33.709Z,28.85
2023-04-25T15:53:56.683Z,28.60
2023-04-25T15:59:18.506Z,28.71
2023-04-25T16:04:40.522Z,28.66
2023-04-25T16:10:02.446Z,29.30
2023-04-25T16:15:24.796Z,29.98
2023-04-25T16:20:46.581Z,29.74
2023-04-25T16:26:09.182Z,29.60
2023-04-25T16:31:31.057Z,29.14
2023-04-25T16:36:55.081Z,28.82
2023-04-25T16:42:18.003Z,28.64
2023-04-25T16:47:39.844Z,28.56
2023-04-25T16:53:01.800Z,28.40
2023-04-25T16:58:23.633Z,27.92
2023-04-25T17:03:45.657Z,27.87
2023-04-25T17:09:08.512Z,27.87
2023-04-25T17:14:30.378Z,27.74
2023-04-25T17:19:52.327Z,27.47
2023-04-25T17:25:14.049Z,27.17
2023-04-25T17:30:36.228Z,27.28
2023-04-25T17:35:58.286Z,27.40
2023-04-25T17:41:21.092Z,27.07
2023-04-25T17:46:42.929Z,26.97
2023-04-25T17:52:05.184Z,27.21
2023-04-25T17:57:27.504Z,26.90
2023-04-25T18:02:51.432Z,26.94
2023-04-25T18:08:14.013Z,27.02
2023-04-25T18:13:37.429Z,27.29
2023-04-25T18:19:05.530Z,27.27
2023-04-25T18:24:27.628Z,27.47
2023-04-25T18:29:49.578Z,28.04
2023-04-25T18:35:12.428Z,27.96
2023-04-25T18:40:35.179Z,28.19
2023-04-25T18:45:59.472Z,28.53
2023-04-25T18:51:29.672Z,28.53
2023-04-25T18:56:51.659Z,28.81
2023-04-25T19:02:16.307Z,28.68
2023-04-25T19:07:38.596Z,28.75
2023-04-25T19:13:00.945Z,28.67
2023-04-25T19:18:23.368Z,28.32
2023-04-25T19:23:45.202Z,28.36
2023-04-25T19:29:12.754Z,28.33
2023-04-25T19:34:34.588Z,28.81
2023-04-25T19:39:57.074Z,28.79
2023-04-25T19:45:18.987Z,28.61
2023-04-25T19:50:41.994Z,29.16
2023-04-25T19:56:03.838Z,29.21
2023-04-25T20:01:26.547Z,29.49
2023-04-25T20:06:48.362Z,29.64
2023-04-25T20:12:12.023Z,29.93
2023-04-25T20:17:35.068Z,30.08
2023-04-25T20:22:56.929Z,30.04
2023-04-25T20:28:18.952Z,30.29
2023-04-25T20:33:43.897Z,30.47
2023-04-25T20:39:05.789Z,30.89
2023-04-25T20:44:27.596Z,30.90
2023-04-25T20:49:49.620Z,30.94
2023-04-25T20:55:12.309Z,30.79
2023-04-25T21:00:35.184Z,30.95
2023-04-25T21:05:57.334Z,30.85
2023-04-25T21:11:19.725Z,31.32
2023-04-25T21:16:42.877Z,31.18
2023-04-25T21:22:05.100Z,31.08
2023-04-25T21:27:26.952Z,31.20
2023-04-25T21:32:51.686Z,31.20
2023-04-25T21:38:14.865Z,31.25
2023-04-25T21:43:37.004Z,31.53
2023-04-25T21:48:58.963Z,31.26
2023-04-25T21:54:20.787Z,31.31
2023-04-25T21:59:43.637Z,31.40
2023-04-25T22:05:06.666Z,31.44
2023-04-25T22:10:28.664Z,31.77
2023-04-25T22:15:50.735Z,31.60
2023-04-25T22:21:13.095Z,31.81
2023-04-25T22:26:34.961Z,31.43
2023-04-25T22:31:57.099Z,31.79
2023-04-25T22:37:18.946Z,31.97
2023-04-25T22:42:42.439Z,31.73
2023-04-25T22:48:04.430Z,31.86
2023-04-25T22:53:26.653Z,31.88
2023-04-25T22:58:50.025Z,32.10
2023-04-25T23:04:12.217Z,31.71
2023-04-25T23:09:34.498Z,32.02
2023-04-25T23:14:56.292Z,31.73
2023-04-25T23:20:18.100Z,32.03
2023-04-25T23:25:43.269Z,31.76
2023-04-25T23:31:12.572Z,32.08
2023-04-25T23:36:34.654Z,32.09
2023-04-25T23:41:58.011Z,32.07
2023-04-25T23:47:20.638Z,31.92
2023-04-25T23:52:42.641Z,31.98
2023-04-25T23:58:04.519Z,32.19
